sensor_id;sensor_type;location;lat;lon;timestamp;P1;durP1;ratioP1;P2;durP2;ratioP2
15177;SDS011;7689;53.612;-2.416;2022-07-22T00:01:48;8.77;;;8.07;;
15177;SDS011;7689;53.612;-2.416;2022-07-22T00:04:14;12.40;;;8.68;;
15177;SDS011;7689;53.612;-2.416;2022-07-22T00:06:41;11.50;;;8.65;;
15177;SDS011;7689;53.612;-2.416;2022-07-22T00:09:07;10.25;;;8.48;;
15177;SDS011;7689;53.612;-2.416;2022-07-22T00:11:33;14.77;;;8.63;;
15177;SDS011;7689;53.612;-2.416;2022-07-22T00:13:58;8.93;;;7.60;;
15177;SDS011;7689;53.612;-2.416;2022-07-22T00:16:24;15.75;;;8.68;;
15177;SDS011;7689;53.612;-2.416;2022-07-22T00:18:49;9.73;;;8.50;;
15177;SDS011;7689;53.612;-2.416;2022-07-22T00:21:15;11.00;;;8.20;;
15177;SDS011;7689;53.612;-2.416;2022-07-22T00:23:41;10.00;;;8.00;;
15177;SDS011;7689;53.612;-2.416;2022-07-22T00:26:07;9.82;;;7.47;;
15177;SDS011;7689;53.612;-2.416;2022-07-22T00:28:32;8.10;;;7.30;;
15177;SDS011;7689;53.612;-2.416;2022-07-22T00:30:58;12.38;;;7.25;;
15177;SDS011;7689;53.612;-2.416;2022-07-22T00:33:24;9.90;;;7.30;;
15177;SDS011;7689;53.612;-2.416;2022-07-22T00:35:49;7.07;;;6.45;;
15177;SDS011;7689;53.612;-2.416;2022-07-22T00:38:15;8.60;;;7.15;;
15177;SDS011;7689;53.612;-2.416;2022-07-22T00:40:41;9.48;;;6.55;;
15177;SDS011;7689;53.612;-2.416;2022-07-22T00:43:07;7.10;;;6.40;;
15177;SDS011;7689;53.612;-2.416;2022-07-22T00:45:32;6.75;;;5.93;;
15177;SDS011;7689;53.612;-2.416;2022-07-22T00:47:58;6.93;;;6.20;;
15177;SDS011;7689;53.612;-2.416;2022-07-22T00:50:24;7.75;;;6.32;;
15177;SDS011;7689;53.612;-2.416;2022-07-22T00:52:50;10.27;;;6.20;;
15177;SDS011;7689;53.612;-2.416;2022-07-22T00:55:15;6.38;;;5.85;;
15177;SDS011;7689;53.612;-2.416;2022-07-22T00:57:41;6.78;;;6.07;;
15177;SDS011;7689;53.612;-2.416;2022-07-22T01:00:08;6.93;;;5.78;;
15177;SDS011;7689;53.612;-2.416;2022-07-22T01:02:37;7.65;;;6.18;;
15177;SDS011;7689;53.612;-2.416;2022-07-22T01:05:04;10.20;;;5.88;;
15177;SDS011;7689;53.612;-2.416;2022-07-22T01:07:30;7.97;;;5.40;;
15177;SDS011;7689;53.612;-2.416;2022-07-22T01:09:56;7.63;;;5.60;;
15177;SDS011;7689;53.612;-2.416;2022-07-22T01:12:22;5.32;;;4.90;;
15177;SDS011;7689;53.612;-2.416;2022-07-22T01:14:48;5.90;;;5.28;;
15177;SDS011;7689;53.612;-2.416;2022-07-22T01:17:13;6.38;;;4.82;;
15177;SDS011;7689;53.612;-2.416;2022-07-22T01:19:39;5.38;;;4.88;;
15177;SDS011;7689;53.612;-2.416;2022-07-22T01:22:06;4.72;;;4.40;;
15177;SDS011;7689;53.612;-2.416;2022-07-22T01:24:32;7.18;;;5.15;;
15177;SDS011;7689;53.612;-2.416;2022-07-22T01:26:58;11.82;;;4.65;;
15177;SDS011;7689;53.612;-2.416;2022-07-22T01:29:24;13.80;;;5.03;;
15177;SDS011;7689;53.612;-2.416;2022-07-22T01:31:50;5.65;;;4.78;;
15177;SDS011;7689;53.612;-2.416;2022-07-22T01:34:16;4.57;;;4.18;;
15177;SDS011;7689;53.612;-2.416;2022-07-22T01:36:42;5.15;;;3.83;;
15177;SDS011;7689;53.612;-2.416;2022-07-22T01:39:07;5.28;;;4.20;;
15177;SDS011;7689;53.612;-2.416;2022-07-22T01:41:33;4.18;;;3.88;;
15177;SDS011;7689;53.612;-2.416;2022-07-22T01:43:59;4.50;;;3.30;;
15177;SDS011;7689;53.612;-2.416;2022-07-22T01:46:24;4.57;;;3.53;;
15177;SDS011;7689;53.612;-2.416;2022-07-22T01:48:50;4.15;;;3.75;;
15177;SDS011;7689;53.612;-2.416;2022-07-22T01:51:17;4.47;;;3.33;;
15177;SDS011;7689;53.612;-2.416;2022-07-22T01:53:43;7.38;;;3.42;;
15177;SDS011;7689;53.612;-2.416;2022-07-22T01:56:09;3.88;;;3.13;;
15177;SDS011;7689;53.612;-2.416;2022-07-22T01:58:35;3.83;;;3.53;;
15177;SDS011;7689;53.612;-2.416;2022-07-22T02:01:00;5.80;;;3.30;;
15177;SDS011;7689;53.612;-2.416;2022-07-22T02:03:26;5.47;;;3.53;;
15177;SDS011;7689;53.612;-2.416;2022-07-22T02:05:52;7.85;;;3.30;;
15177;SDS011;7689;53.612;-2.416;2022-07-22T02:08:17;5.90;;;3.60;;
15177;SDS011;7689;53.612;-2.416;2022-07-22T02:10:43;3.65;;;3.13;;
15177;SDS011;7689;53.612;-2.416;2022-07-22T02:13:09;6.03;;;3.20;;
15177;SDS011;7689;53.612;-2.416;2022-07-22T02:15:35;3.67;;;3.33;;
15177;SDS011;7689;53.612;-2.416;2022-07-22T02:18:08;3.60;;;3.15;;
15177;SDS011;7689;53.612;-2.416;2022-07-22T02:20:41;4.47;;;3.05;;
15177;SDS011;7689;53.612;-2.416;2022-07-22T02:23:07;4.43;;;2.92;;
15177;SDS011;7689;53.612;-2.416;2022-07-22T02:25:33;3.70;;;3.40;;
15177;SDS011;7689;53.612;-2.416;2022-07-22T02:27:59;5.43;;;3.20;;
15177;SDS011;7689;53.612;-2.416;2022-07-22T02:30:25;3.45;;;3.15;;
15177;SDS011;7689;53.612;-2.416;2022-07-22T02:32:51;4.53;;;3.22;;
15177;SDS011;7689;53.612;-2.416;2022-07-22T02:35:17;5.00;;;3.20;;
15177;SDS011;7689;53.612;-2.416;2022-07-22T02:37:43;4.28;;;3.00;;
15177;SDS011;7689;53.612;-2.416;2022-07-22T02:40:09;3.17;;;2.95;;
15177;SDS011;7689;53.612;-2.416;2022-07-22T02:42:35;5.43;;;3.15;;
15177;SDS011;7689;53.612;-2.416;2022-07-22T02:45:00;4.35;;;2.90;;
15177;SDS011;7689;53.612;-2.416;2022-07-22T02:47:27;3.15;;;2.88;;
15177;SDS011;7689;53.612;-2.416;2022-07-22T02:49:52;4.40;;;3.05;;
15177;SDS011;7689;53.612;-2.416;2022-07-22T02:52:18;2.80;;;2.58;;
15177;SDS011;7689;53.612;-2.416;2022-07-22T02:54:43;3.42;;;2.90;;
15177;SDS011;7689;53.612;-2.416;2022-07-22T02:57:09;4.47;;;3.08;;
15177;SDS011;7689;53.612;-2.416;2022-07-22T02:59:35;3.10;;;2.80;;
15177;SDS011;7689;53.612;-2.416;2022-07-22T03:02:01;3.13;;;2.65;;
15177;SDS011;7689;53.612;-2.416;2022-07-22T03:04:27;4.70;;;3.00;;
15177;SDS011;7689;53.612;-2.416;2022-07-22T03:06:53;4.28;;;2.90;;
15177;SDS011;7689;53.612;-2.416;2022-07-22T03:09:18;3.13;;;2.80;;
15177;SDS011;7689;53.612;-2.416;2022-07-22T03:11:44;2.88;;;2.70;;
15177;SDS011;7689;53.612;-2.416;2022-07-22T03:14:10;3.63;;;2.67;;
15177;SDS011;7689;53.612;-2.416;2022-07-22T03:16:36;2.65;;;2.45;;
15177;SDS011;7689;53.612;-2.416;2022-07-22T03:19:02;2.75;;;2.55;;
15177;SDS011;7689;53.612;-2.416;2022-07-22T03:21:28;3.00;;;2.75;;
15177;SDS011;7689;53.612;-2.416;2022-07-22T03:23:53;4.78;;;2.85;;
15177;SDS011;7689;53.612;-2.416;2022-07-22T03:26:20;2.95;;;2.58;;
15177;SDS011;7689;53.612;-2.416;2022-07-22T03:28:46;3.10;;;2.70;;
15177;SDS011;7689;53.612;-2.416;2022-07-22T03:31:12;4.78;;;3.15;;
15177;SDS011;7689;53.612;-2.416;2022-07-22T03:33:38;4.18;;;3.13;;
15177;SDS011;7689;53.612;-2.416;2022-07-22T03:36:04;3.95;;;3.20;;
15177;SDS011;7689;53.612;-2.416;2022-07-22T03:38:30;4.47;;;3.13;;
15177;SDS011;7689;53.612;-2.416;2022-07-22T03:40:56;4.43;;;2.97;;
15177;SDS011;7689;53.612;-2.416;2022-07-22T03:43:22;3.17;;;2.95;;
15177;SDS011;7689;53.612;-2.416;2022-07-22T03:45:47;3.10;;;2.80;;
15177;SDS011;7689;53.612;-2.416;2022-07-22T03:48:13;4.10;;;3.15;;
15177;SDS011;7689;53.612;-2.416;2022-07-22T03:50:39;3.42;;;3.13;;
15177;SDS011;7689;53.612;-2.416;2022-07-22T03:53:04;3.30;;;3.00;;
15177;SDS011;7689;53.612;-2.416;2022-07-22T03:55:30;5.45;;;3.13;;
15177;SDS011;7689;53.612;-2.416;2022-07-22T03:57:56;4.65;;;2.85;;
15177;SDS011;7689;53.612;-2.416;2022-07-22T04:00:21;4.32;;;3.22;;
15177;SDS011;7689;53.612;-2.416;2022-07-22T04:02:47;3.30;;;3.00;;
15177;SDS011;7689;53.612;-2.416;2022-07-22T04:05:13;3.25;;;2.95;;
15177;SDS011;7689;53.612;-2.416;2022-07-22T04:07:38;2.75;;;2.55;;
15177;SDS011;7689;53.612;-2.416;2022-07-22T04:10:04;4.25;;;3.05;;
15177;SDS011;7689;53.612;-2.416;2022-07-22T04:12:32;4.63;;;3.42;;
15177;SDS011;7689;53.612;-2.416;2022-07-22T04:15:02;3.47;;;3.17;;
15177;SDS011;7689;53.612;-2.416;2022-07-22T04:17:29;3.45;;;3.20;;
15177;SDS011;7689;53.612;-2.416;2022-07-22T04:19:55;3.63;;;3.30;;
15177;SDS011;7689;53.612;-2.416;2022-07-22T04:22:21;4.40;;;2.90;;
15177;SDS011;7689;53.612;-2.416;2022-07-22T04:24:46;4.65;;;3.50;;
15177;SDS011;7689;53.612;-2.416;2022-07-22T04:27:12;3.92;;;3.08;;
15177;SDS011;7689;53.612;-2.416;2022-07-22T04:29:37;4.03;;;3.63;;
15177;SDS011;7689;53.612;-2.416;2022-07-22T04:32:03;3.35;;;3.05;;
15177;SDS011;7689;53.612;-2.416;2022-07-22T04:34:29;3.38;;;3.08;;
15177;SDS011;7689;53.612;-2.416;2022-07-22T04:36:55;3.53;;;3.22;;
15177;SDS011;7689;53.612;-2.416;2022-07-22T04:39:20;4.72;;;3.38;;
15177;SDS011;7689;53.612;-2.416;2022-07-22T04:41:46;3.63;;;3.33;;
15177;SDS011;7689;53.612;-2.416;2022-07-22T04:44:11;6.03;;;3.50;;
15177;SDS011;7689;53.612;-2.416;2022-07-22T04:46:37;3.85;;;3.42;;
15177;SDS011;7689;53.612;-2.416;2022-07-22T04:49:03;4.07;;;3.40;;
15177;SDS011;7689;53.612;-2.416;2022-07-22T04:51:28;4.45;;;3.13;;
15177;SDS011;7689;53.612;-2.416;2022-07-22T04:53:54;5.30;;;3.53;;
15177;SDS011;7689;53.612;-2.416;2022-07-22T04:56:20;6.85;;;3.35;;
15177;SDS011;7689;53.612;-2.416;2022-07-22T04:58:46;4.85;;;3.03;;
15177;SDS011;7689;53.612;-2.416;2022-07-22T05:01:12;7.47;;;3.50;;
15177;SDS011;7689;53.612;-2.416;2022-07-22T05:03:38;3.40;;;3.10;;
15177;SDS011;7689;53.612;-2.416;2022-07-22T05:06:04;5.28;;;3.25;;
15177;SDS011;7689;53.612;-2.416;2022-07-22T05:08:30;4.28;;;3.25;;
15177;SDS011;7689;53.612;-2.416;2022-07-22T05:10:55;3.33;;;3.00;;
15177;SDS011;7689;53.612;-2.416;2022-07-22T05:13:21;3.30;;;3.10;;
15177;SDS011;7689;53.612;-2.416;2022-07-22T05:15:47;9.25;;;3.42;;
15177;SDS011;7689;53.612;-2.416;2022-07-22T05:18:12;4.20;;;3.15;;
15177;SDS011;7689;53.612;-2.416;2022-07-22T05:20:38;6.20;;;3.80;;
15177;SDS011;7689;53.612;-2.416;2022-07-22T05:23:04;3.30;;;3.10;;
15177;SDS011;7689;53.612;-2.416;2022-07-22T05:25:29;3.55;;;3.25;;
15177;SDS011;7689;53.612;-2.416;2022-07-22T05:27:55;5.38;;;3.53;;
15177;SDS011;7689;53.612;-2.416;2022-07-22T05:30:21;5.15;;;3.97;;
15177;SDS011;7689;53.612;-2.416;2022-07-22T05:32:47;4.45;;;3.80;;
15177;SDS011;7689;53.612;-2.416;2022-07-22T05:35:13;4.85;;;3.78;;
15177;SDS011;7689;53.612;-2.416;2022-07-22T05:37:38;6.60;;;3.63;;
15177;SDS011;7689;53.612;-2.416;2022-07-22T05:40:04;6.15;;;3.85;;
15177;SDS011;7689;53.612;-2.416;2022-07-22T05:42:31;5.13;;;3.80;;
15177;SDS011;7689;53.612;-2.416;2022-07-22T05:44:56;4.00;;;3.70;;
15177;SDS011;7689;53.612;-2.416;2022-07-22T05:47:22;4.22;;;3.80;;
15177;SDS011;7689;53.612;-2.416;2022-07-22T05:49:47;4.38;;;4.00;;
15177;SDS011;7689;53.612;-2.416;2022-07-22T05:52:13;6.30;;;4.50;;
15177;SDS011;7689;53.612;-2.416;2022-07-22T05:54:39;6.40;;;4.00;;
15177;SDS011;7689;53.612;-2.416;2022-07-22T05:57:07;8.07;;;4.30;;
15177;SDS011;7689;53.612;-2.416;2022-07-22T05:59:34;6.10;;;4.28;;
15177;SDS011;7689;53.612;-2.416;2022-07-22T06:02:00;4.65;;;4.35;;
15177;SDS011;7689;53.612;-2.416;2022-07-22T06:04:26;5.60;;;4.45;;
15177;SDS011;7689;53.612;-2.416;2022-07-22T06:06:52;5.85;;;4.70;;
15177;SDS011;7689;53.612;-2.416;2022-07-22T06:09:18;5.72;;;4.70;;
15177;SDS011;7689;53.612;-2.416;2022-07-22T06:11:44;6.13;;;4.65;;
15177;SDS011;7689;53.612;-2.416;2022-07-22T06:14:09;4.90;;;4.50;;
15177;SDS011;7689;53.612;-2.416;2022-07-22T06:16:35;4.90;;;4.47;;
15177;SDS011;7689;53.612;-2.416;2022-07-22T06:19:01;4.53;;;4.22;;
15177;SDS011;7689;53.612;-2.416;2022-07-22T06:21:27;6.75;;;5.25;;
15177;SDS011;7689;53.612;-2.416;2022-07-22T06:23:53;5.30;;;4.80;;
15177;SDS011;7689;53.612;-2.416;2022-07-22T06:26:18;5.38;;;4.93;;
15177;SDS011;7689;53.612;-2.416;2022-07-22T06:28:44;6.28;;;4.97;;
15177;SDS011;7689;53.612;-2.416;2022-07-22T06:31:10;8.50;;;5.40;;
15177;SDS011;7689;53.612;-2.416;2022-07-22T06:33:36;5.10;;;4.70;;
15177;SDS011;7689;53.612;-2.416;2022-07-22T06:36:02;7.43;;;5.30;;
15177;SDS011;7689;53.612;-2.416;2022-07-22T06:38:28;5.47;;;5.07;;
15177;SDS011;7689;53.612;-2.416;2022-07-22T06:40:55;5.85;;;5.32;;
15177;SDS011;7689;53.612;-2.416;2022-07-22T06:43:21;6.10;;;5.50;;
15177;SDS011;7689;53.612;-2.416;2022-07-22T06:45:46;7.20;;;5.47;;
15177;SDS011;7689;53.612;-2.416;2022-07-22T06:48:12;7.05;;;6.28;;
15177;SDS011;7689;53.612;-2.416;2022-07-22T06:50:38;6.60;;;6.00;;
15177;SDS011;7689;53.612;-2.416;2022-07-22T06:53:04;7.07;;;5.95;;
15177;SDS011;7689;53.612;-2.416;2022-07-22T06:55:29;6.10;;;5.50;;
15177;SDS011;7689;53.612;-2.416;2022-07-22T06:57:55;5.72;;;5.07;;
15177;SDS011;7689;53.612;-2.416;2022-07-22T07:00:21;6.95;;;5.70;;
15177;SDS011;7689;53.612;-2.416;2022-07-22T07:02:46;9.45;;;5.68;;
15177;SDS011;7689;53.612;-2.416;2022-07-22T07:05:12;7.70;;;6.03;;
15177;SDS011;7689;53.612;-2.416;2022-07-22T07:07:38;6.80;;;6.07;;
15177;SDS011;7689;53.612;-2.416;2022-07-22T07:10:04;6.50;;;5.80;;
15177;SDS011;7689;53.612;-2.416;2022-07-22T07:12:30;8.50;;;5.68;;
15177;SDS011;7689;53.612;-2.416;2022-07-22T07:14:55;6.57;;;5.88;;
15177;SDS011;7689;53.612;-2.416;2022-07-22T07:17:21;7.75;;;5.78;;
15177;SDS011;7689;53.612;-2.416;2022-07-22T07:19:46;6.70;;;6.10;;
15177;SDS011;7689;53.612;-2.416;2022-07-22T07:22:12;9.25;;;6.18;;
15177;SDS011;7689;53.612;-2.416;2022-07-22T07:24:38;6.30;;;5.70;;
15177;SDS011;7689;53.612;-2.416;2022-07-22T07:27:04;7.55;;;6.43;;
15177;SDS011;7689;53.612;-2.416;2022-07-22T07:29:29;12.30;;;6.57;;
15177;SDS011;7689;53.612;-2.416;2022-07-22T07:31:55;8.20;;;6.50;;
15177;SDS011;7689;53.612;-2.416;2022-07-22T07:34:21;6.88;;;6.20;;
15177;SDS011;7689;53.612;-2.416;2022-07-22T07:36:46;6.70;;;5.97;;
15177;SDS011;7689;53.612;-2.416;2022-07-22T07:39:12;8.35;;;6.55;;
15177;SDS011;7689;53.612;-2.416;2022-07-22T07:41:37;6.95;;;6.32;;
15177;SDS011;7689;53.612;-2.416;2022-07-22T07:44:03;8.85;;;6.18;;
15177;SDS011;7689;53.612;-2.416;2022-07-22T07:46:30;7.90;;;6.90;;
15177;SDS011;7689;53.612;-2.416;2022-07-22T07:48:56;7.38;;;6.63;;
15177;SDS011;7689;53.612;-2.416;2022-07-22T07:51:21;7.55;;;6.68;;
15177;SDS011;7689;53.612;-2.416;2022-07-22T07:53:47;8.38;;;6.93;;
15177;SDS011;7689;53.612;-2.416;2022-07-22T07:56:13;7.50;;;6.22;;
15177;SDS011;7689;53.612;-2.416;2022-07-22T07:58:38;9.27;;;6.65;;
15177;SDS011;7689;53.612;-2.416;2022-07-22T08:01:04;6.68;;;6.07;;
15177;SDS011;7689;53.612;-2.416;2022-07-22T08:03:30;7.90;;;5.75;;
15177;SDS011;7689;53.612;-2.416;2022-07-22T08:05:56;7.00;;;6.30;;
15177;SDS011;7689;53.612;-2.416;2022-07-22T08:08:22;6.85;;;6.07;;
15177;SDS011;7689;53.612;-2.416;2022-07-22T08:10:48;6.57;;;5.93;;
15177;SDS011;7689;53.612;-2.416;2022-07-22T08:13:14;6.15;;;5.60;;
15177;SDS011;7689;53.612;-2.416;2022-07-22T08:15:40;5.95;;;5.32;;
15177;SDS011;7689;53.612;-2.416;2022-07-22T08:18:05;5.70;;;5.28;;
15177;SDS011;7689;53.612;-2.416;2022-07-22T08:20:31;6.15;;;5.55;;
15177;SDS011;7689;53.612;-2.416;2022-07-22T08:22:57;4.70;;;4.30;;
15177;SDS011;7689;53.612;-2.416;2022-07-22T08:25:23;4.15;;;3.85;;
15177;SDS011;7689;53.612;-2.416;2022-07-22T08:27:49;4.70;;;4.28;;
15177;SDS011;7689;53.612;-2.416;2022-07-22T08:30:15;3.95;;;3.65;;
15177;SDS011;7689;53.612;-2.416;2022-07-22T08:32:41;3.72;;;3.53;;
15177;SDS011;7689;53.612;-2.416;2022-07-22T08:35:07;3.78;;;3.58;;
15177;SDS011;7689;53.612;-2.416;2022-07-22T08:37:34;4.80;;;3.65;;
15177;SDS011;7689;53.612;-2.416;2022-07-22T08:39:59;3.95;;;3.65;;
15177;SDS011;7689;53.612;-2.416;2022-07-22T08:42:25;3.53;;;3.33;;
15177;SDS011;7689;53.612;-2.416;2022-07-22T08:44:52;3.90;;;3.58;;
15177;SDS011;7689;53.612;-2.416;2022-07-22T08:47:22;3.70;;;3.47;;
15177;SDS011;7689;53.612;-2.416;2022-07-22T08:49:48;3.60;;;3.30;;
15177;SDS011;7689;53.612;-2.416;2022-07-22T08:52:14;3.53;;;3.33;;
15177;SDS011;7689;53.612;-2.416;2022-07-22T08:54:40;3.53;;;3.33;;
15177;SDS011;7689;53.612;-2.416;2022-07-22T08:57:05;4.00;;;3.60;;
15177;SDS011;7689;53.612;-2.416;2022-07-22T08:59:31;3.60;;;3.40;;
15177;SDS011;7689;53.612;-2.416;2022-07-22T09:02:00;3.60;;;3.40;;
15177;SDS011;7689;53.612;-2.416;2022-07-22T09:04:49;3.42;;;3.13;;
15177;SDS011;7689;53.612;-2.416;2022-07-22T09:09:59;4.15;;;3.85;;
15177;SDS011;7689;53.612;-2.416;2022-07-22T09:12:26;4.25;;;4.00;;
15177;SDS011;7689;53.612;-2.416;2022-07-22T09:14:57;4.07;;;3.85;;
15177;SDS011;7689;53.612;-2.416;2022-07-22T09:17:31;3.80;;;3.60;;
15177;SDS011;7689;53.612;-2.416;2022-07-22T09:20:04;3.92;;;3.70;;
15177;SDS011;7689;53.612;-2.416;2022-07-22T09:22:43;4.10;;;3.80;;
15177;SDS011;7689;53.612;-2.416;2022-07-22T09:25:32;3.30;;;3.10;;
15177;SDS011;7689;53.612;-2.416;2022-07-22T09:30:33;3.80;;;3.60;;
15177;SDS011;7689;53.612;-2.416;2022-07-22T09:33:00;4.05;;;3.47;;
15177;SDS011;7689;53.612;-2.416;2022-07-22T09:35:27;3.60;;;3.30;;
15177;SDS011;7689;53.612;-2.416;2022-07-22T09:37:57;3.45;;;3.28;;
15177;SDS011;7689;53.612;-2.416;2022-07-22T09:40:25;4.28;;;3.88;;
15177;SDS011;7689;53.612;-2.416;2022-07-22T09:42:53;3.95;;;3.60;;
15177;SDS011;7689;53.612;-2.416;2022-07-22T09:45:20;4.43;;;3.60;;
15177;SDS011;7689;53.612;-2.416;2022-07-22T09:47:48;3.58;;;3.35;;
15177;SDS011;7689;53.612;-2.416;2022-07-22T09:50:22;4.00;;;3.70;;
15177;SDS011;7689;53.612;-2.416;2022-07-22T09:52:50;4.10;;;3.72;;
15177;SDS011;7689;53.612;-2.416;2022-07-22T09:55:17;5.65;;;5.25;;
15177;SDS011;7689;53.612;-2.416;2022-07-22T09:57:45;6.00;;;5.55;;
15177;SDS011;7689;53.612;-2.416;2022-07-22T10:00:13;6.55;;;5.95;;
15177;SDS011;7689;53.612;-2.416;2022-07-22T10:02:48;5.97;;;5.55;;
15177;SDS011;7689;53.612;-2.416;2022-07-22T10:05:20;5.85;;;5.45;;
15177;SDS011;7689;53.612;-2.416;2022-07-22T10:07:47;6.00;;;5.38;;
15177;SDS011;7689;53.612;-2.416;2022-07-22T10:10:15;6.60;;;5.97;;
15177;SDS011;7689;53.612;-2.416;2022-07-22T10:12:42;5.97;;;5.47;;
15177;SDS011;7689;53.612;-2.416;2022-07-22T10:15:08;6.18;;;5.57;;
15177;SDS011;7689;53.612;-2.416;2022-07-22T10:17:36;4.68;;;4.28;;
15177;SDS011;7689;53.612;-2.416;2022-07-22T10:20:04;4.43;;;4.13;;
15177;SDS011;7689;53.612;-2.416;2022-07-22T10:25:11;4.15;;;3.83;;
15177;SDS011;7689;53.612;-2.416;2022-07-22T10:30:32;4.50;;;4.15;;
15177;SDS011;7689;53.612;-2.416;2022-07-22T10:38:27;3.75;;;3.55;;
15177;SDS011;7689;53.612;-2.416;2022-07-22T10:41:01;3.90;;;3.60;;
15177;SDS011;7689;53.612;-2.416;2022-07-22T10:43:28;3.65;;;3.35;;
15177;SDS011;7689;53.612;-2.416;2022-07-22T10:45:56;3.90;;;3.60;;
15177;SDS011;7689;53.612;-2.416;2022-07-22T10:56:32;2.95;;;2.72;;
15177;SDS011;7689;53.612;-2.416;2022-07-22T10:59:10;3.60;;;3.30;;
15177;SDS011;7689;53.612;-2.416;2022-07-22T11:01:41;3.70;;;3.50;;
15177;SDS011;7689;53.612;-2.416;2022-07-22T11:04:09;3.67;;;3.38;;
15177;SDS011;7689;53.612;-2.416;2022-07-22T11:06:37;3.38;;;3.17;;
15177;SDS011;7689;53.612;-2.416;2022-07-22T11:09:04;3.88;;;3.67;;
15177;SDS011;7689;53.612;-2.416;2022-07-22T11:11:33;4.28;;;3.88;;
15177;SDS011;7689;53.612;-2.416;2022-07-22T11:14:11;4.50;;;4.20;;
15177;SDS011;7689;53.612;-2.416;2022-07-22T11:16:56;3.40;;;3.20;;
15177;SDS011;7689;53.612;-2.416;2022-07-22T11:19:25;4.97;;;4.40;;
15177;SDS011;7689;53.612;-2.416;2022-07-22T11:21:53;4.10;;;3.75;;
15177;SDS011;7689;53.612;-2.416;2022-07-22T11:24:20;3.60;;;3.40;;
15177;SDS011;7689;53.612;-2.416;2022-07-22T11:26:48;4.28;;;3.97;;
15177;SDS011;7689;53.612;-2.416;2022-07-22T11:29:16;3.72;;;3.53;;
15177;SDS011;7689;53.612;-2.416;2022-07-22T11:31:48;4.10;;;3.80;;
15177;SDS011;7689;53.612;-2.416;2022-07-22T11:34:14;3.90;;;3.70;;
15177;SDS011;7689;53.612;-2.416;2022-07-22T11:36:41;3.67;;;3.47;;
15177;SDS011;7689;53.612;-2.416;2022-07-22T11:39:09;3.42;;;3.22;;
15177;SDS011;7689;53.612;-2.416;2022-07-22T11:41:36;3.20;;;3.03;;
15177;SDS011;7689;53.612;-2.416;2022-07-22T11:44:02;3.28;;;3.08;;
15177;SDS011;7689;53.612;-2.416;2022-07-22T11:46:34;3.75;;;3.50;;
15177;SDS011;7689;53.612;-2.416;2022-07-22T11:49:01;3.95;;;3.67;;
15177;SDS011;7689;53.612;-2.416;2022-07-22T11:51:28;3.60;;;3.40;;
15177;SDS011;7689;53.612;-2.416;2022-07-22T11:53:55;3.58;;;3.28;;
15177;SDS011;7689;53.612;-2.416;2022-07-22T11:56:22;3.88;;;3.58;;
15177;SDS011;7689;53.612;-2.416;2022-07-22T11:58:48;3.65;;;3.45;;
15177;SDS011;7689;53.612;-2.416;2022-07-22T12:01:16;4.25;;;3.90;;
15177;SDS011;7689;53.612;-2.416;2022-07-22T12:03:53;4.05;;;3.75;;
15177;SDS011;7689;53.612;-2.416;2022-07-22T12:06:22;4.13;;;3.78;;
15177;SDS011;7689;53.612;-2.416;2022-07-22T12:08:56;4.20;;;3.95;;
15177;SDS011;7689;53.612;-2.416;2022-07-22T12:11:28;4.57;;;3.75;;
15177;SDS011;7689;53.612;-2.416;2022-07-22T12:13:54;5.65;;;4.50;;
15177;SDS011;7689;53.612;-2.416;2022-07-22T12:16:27;4.47;;;4.18;;
15177;SDS011;7689;53.612;-2.416;2022-07-22T12:18:58;4.70;;;4.22;;
15177;SDS011;7689;53.612;-2.416;2022-07-22T12:21:30;4.30;;;4.00;;
15177;SDS011;7689;53.612;-2.416;2022-07-22T12:24:00;4.78;;;4.38;;
15177;SDS011;7689;53.612;-2.416;2022-07-22T12:26:47;4.68;;;4.30;;
15177;SDS011;7689;53.612;-2.416;2022-07-22T12:29:18;4.55;;;4.25;;
15177;SDS011;7689;53.612;-2.416;2022-07-22T12:31:50;4.15;;;3.88;;
15177;SDS011;7689;53.612;-2.416;2022-07-22T12:34:32;3.72;;;3.53;;
15177;SDS011;7689;53.612;-2.416;2022-07-22T12:37:07;5.18;;;3.70;;
15177;SDS011;7689;53.612;-2.416;2022-07-22T12:39:38;4.05;;;3.70;;
15177;SDS011;7689;53.612;-2.416;2022-07-22T12:42:15;3.33;;;3.13;;
15177;SDS011;7689;53.612;-2.416;2022-07-22T12:44:49;3.47;;;3.17;;
15177;SDS011;7689;53.612;-2.416;2022-07-22T12:50:20;3.13;;;2.92;;
15177;SDS011;7689;53.612;-2.416;2022-07-22T12:53:02;3.13;;;2.92;;
15177;SDS011;7689;53.612;-2.416;2022-07-22T12:55:30;2.88;;;2.78;;
15177;SDS011;7689;53.612;-2.416;2022-07-22T12:57:57;2.67;;;2.58;;
15177;SDS011;7689;53.612;-2.416;2022-07-22T13:00:24;3.15;;;2.95;;
15177;SDS011;7689;53.612;-2.416;2022-07-22T13:02:51;3.35;;;3.15;;
15177;SDS011;7689;53.612;-2.416;2022-07-22T13:05:19;3.00;;;2.90;;
15177;SDS011;7689;53.612;-2.416;2022-07-22T13:07:44;3.40;;;3.20;;
15177;SDS011;7689;53.612;-2.416;2022-07-22T13:10:11;2.90;;;2.70;;
15177;SDS011;7689;53.612;-2.416;2022-07-22T13:12:37;3.28;;;3.08;;
15177;SDS011;7689;53.612;-2.416;2022-07-22T13:15:03;2.72;;;2.53;;
15177;SDS011;7689;53.612;-2.416;2022-07-22T13:17:29;4.05;;;3.00;;
15177;SDS011;7689;53.612;-2.416;2022-07-22T13:19:55;3.72;;;3.15;;
15177;SDS011;7689;53.612;-2.416;2022-07-22T13:22:21;3.17;;;3.00;;
15177;SDS011;7689;53.612;-2.416;2022-07-22T13:24:46;2.80;;;2.60;;
15177;SDS011;7689;53.612;-2.416;2022-07-22T13:27:12;2.70;;;2.50;;
15177;SDS011;7689;53.612;-2.416;2022-07-22T13:29:38;2.22;;;2.13;;
15177;SDS011;7689;53.612;-2.416;2022-07-22T13:32:04;2.35;;;2.25;;
15177;SDS011;7689;53.612;-2.416;2022-07-22T13:34:30;2.97;;;2.78;;
15177;SDS011;7689;53.612;-2.416;2022-07-22T13:36:56;2.17;;;2.08;;
15177;SDS011;7689;53.612;-2.416;2022-07-22T13:39:22;2.25;;;2.10;;
15177;SDS011;7689;53.612;-2.416;2022-07-22T13:41:48;1.90;;;1.80;;
15177;SDS011;7689;53.612;-2.416;2022-07-22T13:44:13;1.63;;;1.60;;
15177;SDS011;7689;53.612;-2.416;2022-07-22T13:46:39;1.90;;;1.80;;
15177;SDS011;7689;53.612;-2.416;2022-07-22T13:49:05;1.80;;;1.70;;
15177;SDS011;7689;53.612;-2.416;2022-07-22T13:51:30;3.80;;;1.77;;
15177;SDS011;7689;53.612;-2.416;2022-07-22T13:53:57;2.08;;;1.98;;
15177;SDS011;7689;53.612;-2.416;2022-07-22T13:56:23;2.30;;;2.20;;
15177;SDS011;7689;53.612;-2.416;2022-07-22T13:58:48;1.98;;;1.88;;
15177;SDS011;7689;53.612;-2.416;2022-07-22T14:01:14;2.00;;;2.00;;
15177;SDS011;7689;53.612;-2.416;2022-07-22T14:03:41;2.90;;;2.13;;
15177;SDS011;7689;53.612;-2.416;2022-07-22T14:06:06;2.65;;;2.20;;
15177;SDS011;7689;53.612;-2.416;2022-07-22T14:08:34;2.63;;;2.30;;
15177;SDS011;7689;53.612;-2.416;2022-07-22T14:11:00;2.60;;;2.50;;
15177;SDS011;7689;53.612;-2.416;2022-07-22T14:13:25;2.13;;;2.03;;
15177;SDS011;7689;53.612;-2.416;2022-07-22T14:15:51;2.25;;;2.15;;
15177;SDS011;7689;53.612;-2.416;2022-07-22T14:18:17;2.10;;;2.00;;
15177;SDS011;7689;53.612;-2.416;2022-07-22T14:20:42;2.60;;;2.40;;
15177;SDS011;7689;53.612;-2.416;2022-07-22T14:23:08;2.15;;;2.03;;
15177;SDS011;7689;53.612;-2.416;2022-07-22T14:25:38;2.83;;;2.63;;
15177;SDS011;7689;53.612;-2.416;2022-07-22T14:28:05;2.53;;;2.42;;
15177;SDS011;7689;53.612;-2.416;2022-07-22T14:30:31;3.47;;;2.70;;
15177;SDS011;7689;53.612;-2.416;2022-07-22T14:32:59;3.53;;;2.70;;
15177;SDS011;7689;53.612;-2.416;2022-07-22T14:35:25;2.78;;;2.47;;
15177;SDS011;7689;53.612;-2.416;2022-07-22T14:37:51;5.30;;;4.88;;
15177;SDS011;7689;53.612;-2.416;2022-07-22T14:40:17;3.13;;;2.92;;
15177;SDS011;7689;53.612;-2.416;2022-07-22T14:42:42;2.92;;;2.83;;
15177;SDS011;7689;53.612;-2.416;2022-07-22T14:45:08;3.22;;;3.03;;
15177;SDS011;7689;53.612;-2.416;2022-07-22T14:47:35;3.45;;;2.95;;
15177;SDS011;7689;53.612;-2.416;2022-07-22T14:50:02;3.22;;;2.97;;
15177;SDS011;7689;53.612;-2.416;2022-07-22T14:52:28;3.33;;;3.13;;
15177;SDS011;7689;53.612;-2.416;2022-07-22T14:54:54;3.72;;;3.03;;
15177;SDS011;7689;53.612;-2.416;2022-07-22T14:57:20;3.47;;;3.17;;
15177;SDS011;7689;53.612;-2.416;2022-07-22T14:59:45;3.22;;;2.97;;
15177;SDS011;7689;53.612;-2.416;2022-07-22T15:02:11;3.17;;;2.80;;
15177;SDS011;7689;53.612;-2.416;2022-07-22T15:04:36;2.90;;;2.70;;
15177;SDS011;7689;53.612;-2.416;2022-07-22T15:07:02;2.80;;;2.60;;
15177;SDS011;7689;53.612;-2.416;2022-07-22T15:09:28;2.70;;;2.50;;
15177;SDS011;7689;53.612;-2.416;2022-07-22T15:11:54;3.42;;;3.22;;
15177;SDS011;7689;53.612;-2.416;2022-07-22T15:14:19;4.00;;;3.70;;